首页
METAR-TAF:

METAR-TAF

机场 :

雅库茨克, 俄罗斯

纬度: 62-01N, 经度: 129-43E, 海拔: 103米

当前天气观测

该预报发布于30分钟前的17:30 UTC
风速4节,风向西北
温度 12°C
湿度 82%
气压 1010 hPa
能见度10公里或以上
1500米以下无云,无积雨云

METAR: UEEE 231730Z 31002MPS CAVOK 12/09 Q1010 R23L/09//60 NOSIG RMK QFE749

时间: 03:00 (18:00 UTC)

预报

该预报发布于1小时和0分钟前的17:00 UTC
预报有效从23日的 18点(UTC)到 24日的 24点(UTC)
风速2节,风向多变
能见度10公里或以上
1500米以下无云,无积雨云
成为
从 24日的 01点(UTC)到 24日的 03点(UTC)
散云层高于3000英尺, 积雨云.

TAF: UEEE 231700Z 2318/2424 VRB01MPS CAVOK BECMG 2401/2403 SCT030CB

超过4000个机场的气象观测和天气预报(METAR&TAF报告)。

可查询的气象台以黄色和红色小点在地图上表示。

将鼠标移到小点上方,可查看气象台名称。

然后点击查看天气观测和预报。

如需切换地图:点击带黑十字的绿色按钮放大地图;点击带横线的绿色按钮缩小地图;或者点击绿色箭头查看邻近地区的地图。


METAR-TAF: